Latest Weather Observations for Richmond

IDN60801

Issued at 8:02 am EDT Wednesday 22 February 2017 (issued every 30 minutes, with the page automatically refreshed every 10 minutes)

About weather observations | Map of weather stations | Latest weather observations for NSW | Other Formats
Station Details ID: 067105 Name: RICHMOND RAAF Lat: -33.60 Lon: 150.78 Height: 19.0 m
Data from the previous 72 hours. | See also: Recent months at Richmond
Date/Time
EDT
Temp
°C
App
Temp
°C
Dew
Point
°C
Rel
Hum
%
Delta-T
°C
Wind Press
QNH
hPa
Press
MSL
hPa
Rain since
9am
mm
Dir  Spd
km/h
Gust
km/h
Spd
kts
Gust
kts
22/08:00am 18.3 20.2 15.7 85 1.5 CALM 0 0 0 0 1021.3 1021.2 0.0
22/07:30am 17.1 19.0 15.8 92 0.8 CALM 0 0 0 0 1021.1 1021.0 0.0
22/07:00am 15.6 17.2 14.8 95 0.5 CALM 0 0 0 0 1020.7 1020.6 0.0
22/06:30am 15.9 16.7 14.9 94 0.6 N 4 7 2 4 1020.4 1020.3 0.0
22/06:00am 16.5 18.1 15.0 91 0.9 CALM 0 0 0 0 1020.1 1020.0 0.0
22/05:30am 16.7 17.3 15.4 92 0.8 SE 6 7 3 4 1020.0 1019.9 0.0
22/05:00am 16.5 18.1 15.0 91 0.9 CALM 0 0 0 0 1019.8 1019.7 0.0
22/04:30am 16.5 18.0 14.7 89 1.0 CALM 0 2 0 1 1019.7 1019.6 0.0
22/04:00am 17.2 17.6 15.2 88 1.2 WSW 7 9 4 5 1019.6 1019.5 0.0
22/03:30am 16.7 17.6 15.1 90 0.9 NNW 4 6 2 3 1019.6 1019.5 0.0
22/03:00am 17.4 18.4 15.4 88 1.2 WSW 4 7 2 4 1019.8 1019.7 0.0
22/02:30am 17.3 19.0 15.1 87 1.3 CALM 0 0 0 0 1019.8 1019.7 0.0
22/02:00am 17.2 18.8 15.0 87 1.3 CALM 0 0 0 0 1020.2 1020.1 0.0
22/01:30am 18.1 19.9 15.5 85 1.5 CALM 0 0 0 0 1020.4 1020.3 0.0
22/01:00am 18.6 20.2 14.9 79 2.1 CALM 0 0 0 0 1020.4 1020.3 0.0
22/12:30am 19.1 20.7 15.0 77 2.4 CALM 0 0 0 0 1020.8 1020.7 0.0
22/12:00am 19.4 21.0 14.9 75 2.6 CALM 0 0 0 0 1020.9 1020.8 0.0
 
Date/Time
EDT
Temp
°C
App
Temp
°C
Dew
Point
°C
Rel
Hum
%
Delta-T
°C
Wind Press
QNH
hPa
Press
MSL
hPa
Rain since
9am
mm
Dir  Spd
km/h
Gust
km/h
Spd
kts
Gust
kts
21/11:30pm 21.2 21.5 14.6 66 3.9 ENE 6 6 3 3 1020.9 1020.8 0.0
21/11:00pm 21.8 23.0 14.9 65 4.1 NNE 2 7 1 4 1021.0 1020.9 0.0
21/10:30pm 22.0 23.0 15.4 66 3.9 NNE 4 7 2 4 1021.0 1020.9 0.0
21/10:00pm 21.9 21.9 15.3 66 3.9 NNE 9 11 5 6 1020.9 1020.8 0.0
21/09:30pm 22.6 22.1 15.0 62 4.5 NE 11 15 6 8 1020.8 1020.7 0.0
21/09:00pm 22.5 22.7 14.6 61 4.6 ENE 7 9 4 5 1020.6 1020.5 0.0
21/08:30pm 22.7 21.6 14.3 59 4.9 NE 13 19 7 10 1020.1 1020.0 0.0
21/08:00pm 23.6 22.2 14.6 57 5.3 NE 15 22 8 12 1019.6 1019.5 0.0
21/07:30pm 24.4 22.4 13.9 52 6.2 ENE 17 24 9 13 1019.2 1019.1 0.0
21/07:00pm 25.1 23.2 14.3 51 6.4 E 17 22 9 12 1018.7 1018.6 0.0
21/06:30pm 25.8 22.9 14.0 48 7.0 ESE 22 32 12 17 1017.9 1017.8 0.0
21/06:00pm 26.5 23.8 13.6 45 7.6 E 20 28 11 15 1017.5 1017.4 0.0
21/05:30pm 27.6 25.0 13.9 43 8.2 ESE 20 39 11 21 1017.3 1017.2 0.0
21/05:00pm 27.8 23.8 14.1 43 8.2 ESE 28 35 15 19 1017.1 1017.0 0.0
21/04:37pm 27.4 22.9 12.6 40 8.6 ESE 28 44 15 24 1017.0 1016.9 0.0
21/04:30pm 28.4 26.7 13.5 40 8.9 E 15 28 8 15 1017.0 1016.9 0.0
21/04:00pm 28.8 28.2 11.8 35 9.8 S 6 17 3 9 1017.1 1017.0 0.0
21/03:30pm 28.4 27.5 11.5 35 9.7 NNE 7 17 4 9 1017.2 1017.1 0.0
21/03:00pm 28.6 26.6 11.6 34 9.8 E 13 22 7 12 1017.4 1017.3 0.0
21/02:30pm 28.5 27.5 12.4 37 9.4 ENE 9 22 5 12 1017.9 1017.8 0.0
21/02:00pm 27.9 26.4 11.9 37 9.2 ESE 11 22 6 12 1018.3 1018.2 0.0
21/01:30pm 26.6 24.4 10.7 37 8.9 NE 13 22 7 12 1018.7 1018.6 0.0
21/01:00pm 27.4 25.8 11.4 37 9.1 N 11 17 6 9 1019.0 1018.9 0.0
21/12:30pm 26.3 24.4 10.5 37 8.8 E 11 19 6 10 1019.5 1019.4 0.0
21/12:00pm 25.6 23.3 9.0 35 9.0 ESE 11 20 6 11 1019.9 1019.8 0.0
21/11:30am 25.1 22.3 8.6 35 8.9 ESE 13 19 7 10 1020.3 1020.2 0.0
21/11:00am 24.0 21.1 6.3 32 9.1 SE 11 17 6 9 1020.5 1020.4 0.0
21/10:30am 23.0 20.7 7.5 37 8.1 SSW 9 15 5 8 1020.7 1020.6 0.0
21/10:00am 22.1 20.4 8.2 41 7.3 S 7 13 4 7 1020.6 1020.5 0.0
21/09:30am 19.4 18.8 7.5 46 6.1 CALM 0 6 0 3 1020.4 1020.3 0.0
21/09:00am 18.6 18.5 9.4 55 4.8 CALM 0 0 0 0 1020.1 1020.0 0.0
21/08:30am 16.1 16.2 10.0 67 3.2 CALM 0 0 0 0 1019.7 1019.6 0.0
21/08:00am 14.7 15.1 11.3 80 1.8 CALM 0 0 0 0 1019.2 1019.1 0.0
21/07:30am 13.4 13.9 11.5 88 1.0 CALM 0 0 0 0 1019.0 1018.9 0.0
21/07:00am 12.3 12.0 8.6 78 1.8 CALM 0 0 0 0 1018.6 1018.5 0.0
21/06:30am 11.7 11.3 8.2 79 1.7 CALM 0 0 0 0 1018.1 1018.0 0.0
21/06:00am 12.1 11.7 8.2 77 1.9 CALM 0 0 0 0 1017.8 1017.7 0.0
21/05:30am 12.4 12.1 8.5 77 1.9 CALM 0 0 0 0 1017.5 1017.4 0.0
21/05:00am 12.5 12.1 8.2 75 2.1 CALM 0 0 0 0 1017.3 1017.2 0.0
21/04:30am 12.6 12.3 8.7 77 1.9 CALM 0 0 0 0 1017.3 1017.2 0.0
21/04:00am 12.7 12.4 8.8 77 1.9 CALM 0 0 0 0 1017.4 1017.3 0.0
21/03:30am 13.0 12.7 8.7 75 2.2 CALM 0 0 0 0 1017.0 1016.9 0.0
21/03:00am 13.1 11.9 9.4 78 1.9 WSW 6 7 3 4 1017.0 1016.9 0.0
21/02:30am 13.4 12.8 8.9 74 2.3 WSW 2 9 1 5 1016.8 1016.7 0.0
21/02:00am 13.8 13.7 9.3 74 2.3 CALM 0 0 0 0 1016.8 1016.7 0.0
21/01:30am 14.2 14.1 9.6 74 2.4 CALM 0 0 0 0 1016.9 1016.8 0.0
21/01:00am 14.9 14.8 9.5 70 2.8 CALM 0 0 0 0 1016.9 1016.8 0.0
21/12:30am 15.0 14.9 9.6 70 2.8 CALM 0 0 0 0 1016.9 1016.8 0.0
21/12:00am 16.4 16.5 10.0 66 3.4 CALM 0 0 0 0 1016.7 1016.6 0.0
 
Date/Time
EDT
Temp
°C
App
Temp
°C
Dew
Point
°C
Rel
Hum
%
Delta-T
°C
Wind Press
QNH
hPa
Press
MSL
hPa
Rain since
9am
mm
Dir  Spd
km/h
Gust
km/h
Spd
kts
Gust
kts
20/11:30pm 15.8 15.8 9.9 68 3.1 CALM 0 0 0 0 1016.5 1016.4 0.0
20/11:00pm 15.7 15.6 9.4 66 3.3 CALM 0 0 0 0 1016.2 1016.1 0.0
20/10:30pm 16.7 16.2 9.4 62 3.8 SW 2 7 1 4 1015.9 1015.8 0.0
20/10:00pm 17.9 16.9 9.0 56 4.6 SE 4 7 2 4 1015.6 1015.5 0.0
20/09:30pm 19.9 18.3 8.6 48 5.9 ENE 7 9 4 5 1015.0 1014.9 0.0
20/09:00pm 20.4 17.6 8.4 46 6.3 E 13 15 7 8 1014.3 1014.2 0.0
20/08:30pm 21.9 17.5 6.6 37 7.8 ENE 19 24 10 13 1013.4 1013.3 0.0
20/08:00pm 24.1 20.5 0.4 21 10.9 SW 9 9 5 5 1012.4 1012.3 0.0
20/07:30pm 25.3 21.0 0.8 20 11.5 WSW 13 17 7 9 1011.7 1011.6 0.0
20/07:00pm 27.1 21.8 -0.9 16 12.9 WSW 17 22 9 12 1010.9 1010.8 0.0
20/06:30pm 27.9 22.2 -1.1 15 13.4 W 19 24 10 13 1010.5 1010.4 0.0
20/06:00pm 28.4 23.0 -1.6 14 13.8 NW 17 22 9 12 1010.2 1010.1 0.0
20/05:30pm 28.5 24.2 -1.6 14 13.8 WNW 11 20 6 11 1009.8 1009.7 0.0
20/05:00pm 28.6 22.9 -0.5 15 13.7 WNW 19 24 10 13 1009.6 1009.5 0.0
20/04:30pm 28.0 22.8 -3.0 13 13.8 SW 15 20 8 11 1009.5 1009.4 0.0
20/04:00pm 28.3 23.2 -1.7 14 13.8 W 15 24 8 13 1009.4 1009.3 0.0
20/03:30pm 28.4 23.1 -0.7 15 13.6 W 17 28 9 15 1009.6 1009.5 0.0
20/03:00pm 28.0 22.4 1.5 18 12.8 WNW 20 30 11 16 1009.7 1009.6 0.0
20/02:30pm 27.6 22.3 -0.5 16 13.1 WNW 17 24 9 13 1009.9 1009.8 0.0
20/02:00pm 27.3 21.7 0.1 17 12.8 WSW 19 28 10 15 1010.0 1009.9 0.0
20/01:30pm 26.7 21.8 1.9 20 12.0 W 17 28 9 15 1010.3 1010.2 0.0
20/01:00pm 26.2 20.3 1.5 20 11.8 W 22 37 12 20 1010.4 1010.3 0.0
20/12:30pm 24.9 18.8 0.4 20 11.4 WNW 22 30 12 16 1011.0 1010.9 0.0
20/12:00pm 24.7 19.5 2.2 23 10.8 WNW 19 30 10 16 1011.0 1010.9 0.0
20/11:30am 24.2 19.0 3.5 26 10.1 W 20 39 11 21 1011.4 1011.3 0.0
20/11:00am 23.4 18.4 4.4 29 9.4 W 20 30 11 16 1011.6 1011.5 0.0
20/10:30am 22.6 17.3 5.1 32 8.7 WNW 22 39 12 21 1011.7 1011.6 0.0
20/10:00am 21.4 17.0 4.5 33 8.3 W 17 24 9 13 1011.9 1011.8 0.0
20/09:30am 20.8 15.1 4.8 35 7.8 W 24 35 13 19 1011.8 1011.7 0.0
20/09:00am 20.3 15.0 5.1 37 7.5 W 22 41 12 22 1011.8 1011.7 0.0
20/08:30am 19.2 15.3 7.0 45 6.2 WNW 17 22 9 12 1011.8 1011.7 0.0
20/08:00am 17.9 15.5 8.5 54 4.8 NNW 11 15 6 8 1011.7 1011.6 0.0
20/07:30am 16.7 14.1 7.9 56 4.4 WNW 11 17 6 9 1011.4 1011.3 0.0
20/07:00am 15.7 13.5 6.4 54 4.5 NW 7 9 4 5 1011.0 1010.9 0.0
20/06:30am 15.0 12.4 6.0 55 4.3 NW 9 13 5 7 1010.6 1010.5 0.0
20/06:00am 16.1 12.9 5.1 48 5.2 WNW 11 15 6 8 1010.0 1009.9 0.0
20/05:30am 17.2 13.6 4.9 44 5.9 WSW 13 20 7 11 1009.6 1009.5 0.0
20/05:00am 16.9 13.3 4.9 45 5.7 WSW 13 19 7 10 1009.2 1009.1 0.0
20/04:30am 17.6 14.6 4.2 41 6.3 WSW 9 11 5 6 1008.9 1008.8 0.0
20/04:00am 18.6 13.5 3.3 36 7.2 WSW 19 26 10 14 1008.6 1008.5 0.0
20/03:30am 19.5 13.5 3.2 34 7.6 WSW 24 37 13 20 1008.2 1008.1 0.0
20/03:00am 19.2 14.0 3.8 36 7.3 W 20 28 11 15 1007.7 1007.6 0.0
20/02:30am 19.1 15.1 4.8 39 6.9 W 15 22 8 12 1007.4 1007.3 0.0
20/02:00am 17.8 14.7 5.7 45 5.9 W 11 13 6 7 1007.3 1007.2 0.0
20/01:30am 19.3 15.6 4.6 38 7.1 WSW 13 20 7 11 1007.2 1007.1 0.0
20/01:00am 20.3 15.6 5.1 37 7.5 W 19 22 10 12 1007.3 1007.2 0.0
20/12:30am 20.5 16.2 7.2 42 6.8 W 19 24 10 13 1007.2 1007.1 0.0
20/12:00am 20.0 21.5 18.0 88 1.2 WSW 7 9 4 5 1007.2 1007.1 0.0
 
Date/Time
EDT
Temp
°C
App
Temp
°C
Dew
Point
°C
Rel
Hum
%
Delta-T
°C
Wind Press
QNH
hPa
Press
MSL
hPa
Rain since
9am
mm
Dir  Spd
km/h
Gust
km/h
Spd
kts
Gust
kts
19/11:30pm 20.4 22.2 18.2 87 1.4 WSW 6 9 3 5 1007.3 1007.2 0.0
19/11:00pm 20.8 21.8 18.6 87 1.4 SSW 11 13 6 7 1007.0 1006.9 0.0
19/10:30pm 20.6 21.9 18.5 88 1.3 WNW 9 11 5 6 1007.3 1007.2 0.0
19/10:00pm 21.0 23.2 18.4 85 1.6 NW 4 9 2 5 1007.3 1007.2 0.0
19/09:30pm 21.0 24.0 18.4 85 1.6 CALM 0 0 0 0 1006.3 1006.2 0.0
19/09:00pm 21.5 24.4 18.3 82 2.0 CALM 0 0 0 0 1005.9 1005.8 0.0
19/08:30pm 21.6 23.2 18.2 81 2.1 NNE 7 9 4 5 1006.0 1005.9 0.0
19/08:00pm 22.2 22.8 17.8 76 2.7 ENE 11 15 6 8 1006.1 1006.0 0.0
19/07:30pm 22.9 22.6 17.4 71 3.4 E 15 20 8 11 1005.6 1005.5 0.0
19/07:00pm 23.8 22.6 17.1 66 4.2 E 19 28 10 15 1005.3 1005.2 0.0
19/06:30pm 25.3 23.4 16.7 59 5.3 ENE 22 28 12 15 1004.2 1004.1 0.0
19/06:00pm 25.6 23.6 16.5 57 5.6 ENE 22 28 12 15 1004.2 1004.1 0.0
19/05:30pm 26.6 24.4 16.8 55 6.1 E 24 35 13 19 1003.7 1003.6 0.0
19/05:00pm 28.3 27.5 16.2 47 7.5 ENE 15 22 8 12 1003.6 1003.5 0.0
19/04:30pm 28.3 26.9 14.5 43 8.3 NE 15 26 8 14 1003.7 1003.6 0.0
19/04:00pm 28.5 26.4 13.6 40 8.9 NE 17 26 9 14 1003.9 1003.8 0.0
19/03:30pm 28.1 25.9 13.2 39 8.8 ENE 17 24 9 13 1004.3 1004.2 0.0
19/03:00pm 27.7 25.5 12.1 38 9.1 NE 15 24 8 13 1005.0 1004.9 0.0
19/02:30pm 26.7 24.1 10.8 37 9.0 ENE 15 22 8 12 1005.6 1005.5 0.0
19/02:00pm 26.1 23.7 9.9 36 9.0 E 13 24 7 13 1006.3 1006.2 0.0
19/01:30pm 26.4 24.6 10.9 38 8.7 NE 11 19 6 10 1007.0 1006.9 0.0
19/01:00pm 25.8 24.5 11.2 40 8.3 E 9 17 5 9 1007.4 1007.3 0.0
19/12:30pm 24.8 23.4 9.5 38 8.4 E 7 13 4 7 1007.9 1007.8 0.0
19/12:00pm 23.9 22.7 10.2 42 7.6 S 7 15 4 8 1008.5 1008.4 0.0
19/11:30am 23.6 21.2 9.9 42 7.5 SSW 13 17 7 9 1008.8 1008.7 0.0
19/11:00am 22.8 20.3 9.6 43 7.2 SSW 13 19 7 10 1009.2 1009.1 0.0
19/10:30am 22.1 20.6 10.6 48 6.3 SW 9 15 5 8 1009.2 1009.1 0.0
19/10:00am 22.1 19.8 11.8 52 5.8 SSW 15 19 8 10 1009.1 1009.0 0.0
19/09:30am 21.0 19.3 12.4 58 4.8 SSW 13 22 7 12 1009.3 1009.2 0.0
19/09:00am 21.2 20.5 14.4 65 4.0 SSW 11 15 6 8 1009.1 1009.0 3.4
19/08:30am 19.9 19.3 14.7 72 3.0 S 11 17 6 9 1009.2 1009.1 3.4

Other Formats:

Comma delimited format used in spreadsheet applications
http://www.bom.gov.au/fwo/IDN60801/IDN60801.95753.axf

JavaScript Object Notation format (JSON) in row-major order
http://www.bom.gov.au/fwo/IDN60801/IDN60801.95753.json